Time;durP1;ratioP1;P1;durP2;ratioP2;P2;SDS_P1;SDS_P2;PMS_P1;PMS_P2;Temp;Humidity;BMP_temperature;BMP_pressure;BME280_temperature;BME280_humidity;BME280_pressure;Samples;Min_cycle;Max_cycle;Signal;HPM_P1;HPM_P2
2022/06/06 00:00:21;;;;;;;;;;;;;;;23.68;25.70;100996.47;5096437;28;19956;-68
2022/06/06 00:02:49;;;;;;;;;;;;;;;23.67;25.65;100994.81;5096834;28;19916;-70
2022/06/06 00:05:14;;;;;;;;;;;;;;;23.68;25.42;101001.09;5096760;28;19973;-68
2022/06/06 00:07:39;;;;;;;;;;;;;;;23.68;25.36;100993.75;5097368;28;19916;-68
2022/06/06 00:10:05;;;;;;;;;;;;;;;23.69;25.46;100997.28;5096667;28;20350;-68
2022/06/06 00:12:30;;;;;;;;;;;;;;;23.68;25.21;100999.22;5095228;28;20289;-69
2022/06/06 00:14:55;;;;;;;;;;;;;;;23.68;25.11;101004.66;5096359;28;19916;-68
2022/06/06 00:17:21;;;;;;;;;;;;;;;23.67;25.17;101005.75;5096340;28;19924;-68
2022/06/06 00:19:46;;;;;;;;;;;;;;;23.67;24.98;101013.13;5078067;28;19959;-68
2022/06/06 00:22:14;;;;;;;;;;;;;;;23.67;24.90;101008.47;5096103;28;19920;-69
2022/06/06 00:24:39;;;;;;;;;;;;;;;23.67;24.88;101013.13;5095875;28;20380;-68
2022/06/06 00:27:05;;;;;;;;;;;;;;;23.67;24.95;101010.38;5096128;28;20028;-68
2022/06/06 00:29:34;;;;;;;;;;;;;;;23.67;24.64;101003.00;5096346;28;19912;-68
2022/06/06 00:34:49;;;;;;;;;;;;;;;23.65;24.78;101005.19;5096024;28;19959;-68
2022/06/06 00:37:15;;;;;;;;;;;;;;;23.65;24.64;101016.09;5095818;28;19916;-68
2022/06/06 00:39:43;;;;;;;;;;;;;;;23.66;24.63;101017.72;5096071;28;19973;-68
2022/06/06 00:42:12;;;;;;;;;;;;;;;23.65;24.39;101026.19;5096070;28;19920;-69
2022/06/06 00:44:37;;;;;;;;;;;;;;;23.65;24.43;101021.56;5095975;28;19922;-68
2022/06/06 00:47:13;;;;;;;;;;;;;;;23.65;24.46;101027.00;5095876;28;19916;-70
2022/06/06 00:49:49;;;;;;;;;;;;;;;23.66;24.42;101031.38;5077809;28;20104;-68
2022/06/06 00:52:16;;;;;;;;;;;;;;;23.65;24.35;101027.00;5077741;28;19920;-68
2022/06/06 00:54:41;;;;;;;;;;;;;;;23.65;24.30;101027.00;5095545;28;19920;-68
2022/06/06 00:57:09;;;;;;;;;;;;;;;23.65;24.41;101026.19;5078073;28;19916;-68
2022/06/06 00:59:34;;;;;;;;;;;;;;;23.64;24.01;101030.81;5077739;28;19938;-69
2022/06/06 01:02:00;;;;;;;;;;;;;;;23.65;24.25;101028.94;5077567;28;20353;-68
2022/06/06 01:04:26;;;;;;;;;;;;;;;23.66;24.14;101027.81;5095587;28;19916;-68
2022/06/06 01:06:51;;;;;;;;;;;;;;;23.65;23.94;101026.19;5077132;28;19916;-68
2022/06/06 01:09:17;;;;;;;;;;;;;;;23.64;23.97;101028.09;5077451;28;19946;-68
2022/06/06 01:11:43;;;;;;;;;;;;;;;23.65;24.02;101024.28;5076962;28;19916;-68
2022/06/06 01:14:09;;;;;;;;;;;;;;;23.65;23.87;101024.28;5077046;28;19927;-70
2022/06/06 01:16:39;;;;;;;;;;;;;;;23.63;23.88;101021.81;5077349;28;19916;-69
2022/06/06 01:19:14;;;;;;;;;;;;;;;23.63;23.64;101029.19;5095540;28;19916;-68
2022/06/06 01:21:58;;;;;;;;;;;;;;;23.65;23.71;101037.13;5095469;28;19943;-69
2022/06/06 01:24:41;;;;;;;;;;;;;;;23.65;23.79;101032.47;5094648;28;19927;-69
2022/06/06 01:27:25;;;;;;;;;;;;;;;23.62;23.89;101024.78;5094628;28;19917;-68
2022/06/06 01:29:51;;;;;;;;;;;;;;;23.62;23.92;101027.53;5095138;28;19926;-68
2022/06/06 01:32:18;;;;;;;;;;;;;;;23.60;23.90;101033.25;5095002;28;19962;-68
2022/06/06 01:34:43;;;;;;;;;;;;;;;23.64;23.94;101039.00;5076978;28;19917;-68
2022/06/06 01:37:29;;;;;;;;;;;;;;;23.62;23.97;101039.25;5094920;28;19920;-69
2022/06/06 01:39:54;;;;;;;;;;;;;;;23.62;24.00;101038.44;5094951;28;19916;-68
2022/06/06 01:42:25;;;;;;;;;;;;;;;23.64;24.11;101041.72;5076823;28;19923;-69
2022/06/06 01:44:53;;;;;;;;;;;;;;;23.63;24.05;101040.09;5076809;28;19923;-69
2022/06/06 01:47:29;;;;;;;;;;;;;;;23.64;24.10;101039.00;5094838;28;19943;-70
2022/06/06 01:49:57;;;;;;;;;;;;;;;23.62;24.16;101043.91;5076759;28;19916;-70
2022/06/06 01:52:22;;;;;;;;;;;;;;;23.62;24.19;101047.44;5077004;28;19927;-68
2022/06/06 01:54:48;;;;;;;;;;;;;;;23.62;24.30;101050.16;5094393;28;20378;-69
2022/06/06 01:57:14;;;;;;;;;;;;;;;23.61;24.33;101054.00;5076308;28;19921;-69
2022/06/06 01:59:39;;;;;;;;;;;;;;;23.64;24.32;101055.38;5094487;28;19943;-68
2022/06/06 02:02:04;;;;;;;;;;;;;;;23.64;24.29;101058.09;5094478;28;20316;-68
2022/06/06 02:04:29;;;;;;;;;;;;;;;23.62;24.16;101055.63;5094203;28;20300;-68
2022/06/06 02:06:55;;;;;;;;;;;;;;;23.63;24.37;101057.28;5094124;28;20002;-68
2022/06/06 02:09:20;;;;;;;;;;;;;;;23.61;24.09;101059.44;5094426;28;19916;-69
2022/06/06 02:11:45;;;;;;;;;;;;;;;23.62;24.44;101060.25;5094693;28;19916;-68
2022/06/06 02:14:11;;;;;;;;;;;;;;;23.61;24.44;101059.44;5094020;28;19923;-68
2022/06/06 02:16:36;;;;;;;;;;;;;;;23.61;24.30;101061.34;5094230;28;19916;-68
2022/06/06 02:19:02;;;;;;;;;;;;;;;23.61;24.39;101064.06;5094310;28;19922;-68
2022/06/06 02:21:27;;;;;;;;;;;;;;;23.61;24.30;101061.34;5094279;28;20033;-68
2022/06/06 02:23:52;;;;;;;;;;;;;;;23.60;24.61;101068.72;5093927;28;19952;-68
2022/06/06 02:26:18;;;;;;;;;;;;;;;23.61;24.19;101064.06;5093704;28;19924;-70
2022/06/06 02:28:43;;;;;;;;;;;;;;;23.62;24.47;101071.19;5073897;28;19961;-69
2022/06/06 02:31:08;;;;;;;;;;;;;;;23.61;24.42;101069.53;5073914;28;20390;-68
2022/06/06 02:33:34;;;;;;;;;;;;;;;23.62;24.62;101071.19;5055735;28;19916;-68
2022/06/06 02:36:00;;;;;;;;;;;;;;;23.62;24.65;101072.00;5073008;28;19924;-68
2022/06/06 02:38:26;;;;;;;;;;;;;;;23.62;24.57;101073.91;5055825;28;19923;-68
2022/06/06 02:40:51;;;;;;;;;;;;;;;23.61;24.50;101075.81;5073907;28;20313;-68
2022/06/06 02:43:18;;;;;;;;;;;;;;;23.62;24.63;101079.38;5073676;28;19967;-68
2022/06/06 02:45:46;;;;;;;;;;;;;;;23.62;24.63;101076.63;5073782;28;19916;-70
2022/06/06 02:48:12;;;;;;;;;;;;;;;23.61;24.51;101080.44;5073725;28;19924;-68
2022/06/06 02:50:37;;;;;;;;;;;;;;;23.61;24.76;101081.28;5073531;28;19924;-68
2022/06/06 02:53:02;;;;;;;;;;;;;;;23.61;24.54;101085.88;5073770;28;20007;-68
2022/06/06 02:55:28;;;;;;;;;;;;;;;23.62;24.53;101084.81;5073600;28;19929;-68
2022/06/06 02:57:53;;;;;;;;;;;;;;;23.61;24.39;101085.88;5073615;28;19916;-68
2022/06/06 03:00:19;;;;;;;;;;;;;;;23.62;24.35;101082.09;5073088;28;19920;-68
2022/06/06 03:02:44;;;;;;;;;;;;;;;23.64;24.29;101079.91;5073603;28;19924;-69
2022/06/06 03:05:09;;;;;;;;;;;;;;;23.66;24.48;101094.13;5073496;28;19916;-69
2022/06/06 03:07:39;;;;;;;;;;;;;;;23.69;24.30;101098.25;5073577;28;19916;-69
2022/06/06 03:10:08;;;;;;;;;;;;;;;23.71;24.39;101102.38;5055659;28;19916;-69
2022/06/06 03:12:39;;;;;;;;;;;;;;;23.74;24.13;101107.31;5073395;28;19916;-68
2022/06/06 03:15:12;;;;;;;;;;;;;;;23.75;24.35;101108.13;5073276;28;19917;-69
2022/06/06 03:20:50;;;;;;;;;;;;;;;23.86;24.24;101112.66;5073392;28;20405;-67
2022/06/06 03:23:27;;;;;;;;;;;;;;;23.89;24.00;101112.13;5073257;28;19916;-68
2022/06/06 03:26:01;;;;;;;;;;;;;;;23.91;24.49;101111.88;5055023;28;20387;-68
2022/06/06 03:28:27;;;;;;;;;;;;;;;23.94;24.21;101119.53;5089669;28;19939;-68
2022/06/06 03:30:52;;;;;;;;;;;;;;;23.95;23.99;101119.25;5093427;28;20330;-68
2022/06/06 03:33:25;;;;;;;;;;;;;;;23.98;24.08;101124.22;5093661;28;19916;-68
2022/06/06 03:35:59;;;;;;;;;;;;;;;24.05;24.18;101118.53;5093959;28;20066;-68
2022/06/06 03:38:29;;;;;;;;;;;;;;;24.08;24.12;101125.41;5075353;28;19916;-69
2022/06/06 03:41:04;;;;;;;;;;;;;;;24.08;23.84;101123.50;5093201;28;19970;-68
2022/06/06 03:43:31;;;;;;;;;;;;;;;24.10;23.67;101124.03;5093097;28;19926;-68
2022/06/06 03:45:59;;;;;;;;;;;;;;;24.13;23.90;101115.34;5075445;28;19939;-68
2022/06/06 03:48:27;;;;;;;;;;;;;;;24.14;23.69;101121.63;5095417;28;19920;-69
2022/06/06 03:50:59;;;;;;;;;;;;;;;24.17;23.79;101126.56;5096634;28;20367;-68
2022/06/06 03:53:28;;;;;;;;;;;;;;;24.19;23.79;101130.66;5079070;28;19955;-68
2022/06/06 03:55:57;;;;;;;;;;;;;;;24.21;23.81;101119.47;5097119;28;19916;-68
2022/06/06 03:58:22;;;;;;;;;;;;;;;24.23;23.52;101124.69;5096834;28;20412;-68
2022/06/06 04:00:47;;;;;;;;;;;;;;;24.23;23.41;101124.69;5096858;28;19916;-67
2022/06/06 04:03:13;;;;;;;;;;;;;;;24.23;23.40;101117.31;5097637;28;19923;-68
2022/06/06 04:05:38;;;;;;;;;;;;;;;24.25;23.27;101119.78;5096709;28;20366;-68
2022/06/06 04:08:04;;;;;;;;;;;;;;;24.26;23.44;101111.31;5096778;28;19955;-68
2022/06/06 04:10:32;;;;;;;;;;;;;;;24.28;23.36;101119.25;5079619;28;19919;-68
2022/06/06 04:12:57;;;;;;;;;;;;;;;24.30;23.35;101111.63;5078635;28;19916;-68
2022/06/06 04:15:29;;;;;;;;;;;;;;;24.31;23.16;101126.94;5096580;28;19969;-68
2022/06/06 04:18:00;;;;;;;;;;;;;;;24.33;23.30;101124.75;5096734;28;19923;-68
2022/06/06 04:20:31;;;;;;;;;;;;;;;24.34;23.01;101126.41;5097237;28;19916;-68
2022/06/06 04:22:59;;;;;;;;;;;;;;;24.37;22.94;101136.84;5096937;28;19924;-69
2022/06/06 04:25:27;;;;;;;;;;;;;;;24.39;22.59;101129.19;5097593;28;19931;-69
2022/06/06 04:28:06;;;;;;;;;;;;;;;24.44;22.59;101131.13;5097509;28;19916;-69
2022/06/06 04:30:39;;;;;;;;;;;;;;;24.44;22.63;101131.13;5077739;28;19916;-68
2022/06/06 04:33:21;;;;;;;;;;;;;;;24.46;22.84;101135.25;5095453;28;20354;-69
2022/06/06 04:35:52;;;;;;;;;;;;;;;24.47;22.60;101134.16;5095433;28;20259;-68
2022/06/06 04:38:35;;;;;;;;;;;;;;;24.48;22.44;101130.34;5095305;28;20331;-68
2022/06/06 04:41:22;;;;;;;;;;;;;;;24.51;22.63;101127.09;5095392;28;20007;-68
2022/06/06 04:43:53;;;;;;;;;;;;;;;24.55;22.45;101128.22;5077500;28;19965;-70
2022/06/06 04:46:24;;;;;;;;;;;;;;;24.56;22.40;101134.53;5077311;28;19916;-69
2022/06/06 04:48:50;;;;;;;;;;;;;;;24.58;22.63;101134.25;5095885;28;19920;-69
2022/06/06 04:51:16;;;;;;;;;;;;;;;24.60;22.22;101143.84;5095147;28;20255;-69
2022/06/06 04:53:41;;;;;;;;;;;;;;;24.63;22.48;101147.94;5095054;28;19920;-70
2022/06/06 04:56:06;;;;;;;;;;;;;;;24.62;22.22;101141.66;5095135;28;19924;-69
2022/06/06 04:58:32;;;;;;;;;;;;;;;24.66;22.29;101136.50;5076701;28;20307;-69
2022/06/06 05:00:57;;;;;;;;;;;;;;;24.66;22.07;101141.97;5077180;28;19916;-69
2022/06/06 05:03:22;;;;;;;;;;;;;;;24.81;21.91;101139.31;5076988;28;19916;-70
2022/06/06 05:05:47;;;;;;;;;;;;;;;24.69;21.93;101141.44;5095513;28;19923;-70
2022/06/06 05:08:16;;;;;;;;;;;;;;;24.72;22.20;101140.91;5095183;28;19920;-70
2022/06/06 05:10:59;;;;;;;;;;;;;;;24.72;22.25;101143.66;5095691;28;19916;-70
2022/06/06 05:13:36;;;;;;;;;;;;;;;24.82;22.30;101143.72;5094936;28;20278;-71
2022/06/06 05:16:07;;;;;;;;;;;;;;;24.86;22.10;101149.47;5094837;28;20035;-71
2022/06/06 05:18:45;;;;;;;;;;;;;;;24.88;21.99;101148.09;5094542;28;20378;-70
2022/06/06 05:21:19;;;;;;;;;;;;;;;24.83;21.96;101145.34;5077162;28;20057;-70
2022/06/06 05:24:03;;;;;;;;;;;;;;;24.85;21.75;101148.66;5094638;28;19978;-70
2022/06/06 05:26:36;;;;;;;;;;;;;;;24.84;21.55;101157.13;5076014;28;20006;-70
2022/06/06 05:29:17;;;;;;;;;;;;;;;24.86;21.71;101160.41;5094489;28;19916;-70
2022/06/06 05:32:05;;;;;;;;;;;;;;;24.89;21.47;101159.88;5094482;28;19916;-70
2022/06/06 05:34:35;;;;;;;;;;;;;;;24.86;21.22;101160.41;5012292;28;19926;-70
2022/06/06 05:37:14;;;;;;;;;;;;;;;24.89;21.07;101155.22;4995873;28;19918;-71
2022/06/06 05:39:42;;;;;;;;;;;;;;;24.87;21.09;101162.88;4996514;28;19953;-71
2022/06/06 05:42:11;;;;;;;;;;;;;;;24.93;20.89;101161.78;5012198;28;19917;-70
2022/06/06 05:44:42;;;;;;;;;;;;;;;24.97;21.00;101166.75;5011878;28;19956;-70
2022/06/06 05:47:23;;;;;;;;;;;;;;;25.01;21.09;101163.22;5012044;28;19988;-70
2022/06/06 05:50:00;;;;;;;;;;;;;;;25.06;21.21;101171.44;4995958;28;19972;-70
2022/06/06 05:52:43;;;;;;;;;;;;;;;25.05;21.13;101163.50;5012037;28;19921;-70
2022/06/06 05:55:18;;;;;;;;;;;;;;;25.10;20.65;101167.09;5012068;28;19922;-70
2022/06/06 05:58:06;;;;;;;;;;;;;;;25.11;20.74;101170.63;5011918;28;19918;-70
2022/06/06 06:00:38;;;;;;;;;;;;;;;25.11;20.87;101167.91;4934447;29;19957;-70
2022/06/06 06:03:10;;;;;;;;;;;;;;;25.12;20.55;101172.28;4934540;29;20426;-70
2022/06/06 06:05:47;;;;;;;;;;;;;;;25.13;20.89;101168.47;4934471;29;19974;-70
2022/06/06 06:08:36;;;;;;;;;;;;;;;25.11;20.65;101176.09;4933965;29;20394;-71
2022/06/06 06:11:20;;;;;;;;;;;;;;;25.20;20.82;101179.16;4912386;29;19922;-71
2022/06/06 06:14:03;;;;;;;;;;;;;;;25.25;21.14;101171.84;4953231;29;20004;-71
2022/06/06 06:16:29;;;;;;;;;;;;;;;25.25;21.12;101185.53;4952999;29;19925;-71
2022/06/06 06:19:16;;;;;;;;;;;;;;;25.24;21.23;101172.06;4956289;28;19947;-72
2022/06/06 06:21:43;;;;;;;;;;;;;;;25.25;21.23;101181.91;4972294;28;20467;-71
2022/06/06 06:24:09;;;;;;;;;;;;;;;25.34;20.97;101174.88;4972509;28;19918;-71
2022/06/06 06:26:34;;;;;;;;;;;;;;;25.31;20.47;101178.16;4972175;28;19922;-71
2022/06/06 06:29:01;;;;;;;;;;;;;;;25.18;20.78;101178.59;4972292;28;19918;-71
2022/06/06 06:31:26;;;;;;;;;;;;;;;25.27;21.08;101186.06;4972334;28;19918;-70
2022/06/06 06:34:10;;;;;;;;;;;;;;;25.29;20.84;101181.16;4972479;28;19925;-72
2022/06/06 06:36:45;;;;;;;;;;;;;;;25.30;20.90;101191.00;4979531;28;19924;-72
2022/06/06 06:39:16;;;;;;;;;;;;;;;25.30;20.91;101188.28;5030752;28;19924;-71
2022/06/06 06:41:48;;;;;;;;;;;;;;;25.32;20.81;101178.97;5031097;28;19917;-71
2022/06/06 06:44:24;;;;;;;;;;;;;;;25.33;20.78;101181.44;5014815;28;19995;-71
2022/06/06 06:46:57;;;;;;;;;;;;;;;25.35;20.82;101181.16;5014776;28;20050;-71
2022/06/06 06:49:31;;;;;;;;;;;;;;;25.33;21.04;101184.16;5073036;28;19917;-73
2022/06/06 06:52:11;;;;;;;;;;;;;;;25.28;20.80;101182.25;5073188;28;19920;-70
2022/06/06 06:54:41;;;;;;;;;;;;;;;25.38;20.70;101183.38;5075801;28;20471;-71
2022/06/06 06:57:14;;;;;;;;;;;;;;;25.41;20.72;101180.09;5065583;28;20003;-72
2022/06/06 06:59:51;;;;;;;;;;;;;;;25.40;20.51;101181.19;5055984;28;19920;-70
2022/06/06 07:10:37;;;;;;;;;;;;;;;25.51;20.21;101184.78;5072932;28;19950;-70
2022/06/06 07:13:37;;;;;;;;;;;;;;;25.52;20.39;101184.50;5073489;28;19917;-69
2022/06/06 07:16:22;;;;;;;;;;;;;;;25.53;20.51;101177.16;5010613;28;20391;-69
2022/06/06 07:18:49;;;;;;;;;;;;;;;25.51;20.27;101171.09;5011396;28;20224;-70
2022/06/06 07:21:15;;;;;;;;;;;;;;;25.55;20.15;101172.22;5027734;28;20055;-70
2022/06/06 07:23:40;;;;;;;;;;;;;;;25.59;20.33;101176.06;5031314;28;19960;-70
2022/06/06 07:26:06;;;;;;;;;;;;;;;25.57;20.40;101170.84;5034080;28;20383;-70
2022/06/06 07:28:31;;;;;;;;;;;;;;;25.55;20.37;101167.56;5034051;28;19918;-68
2022/06/06 07:31:15;;;;;;;;;;;;;;;25.60;20.39;101173.06;5017639;28;19917;-68
2022/06/06 07:33:59;;;;;;;;;;;;;;;25.62;20.13;101172.78;5034303;28;20403;-69
2022/06/06 07:36:24;;;;;;;;;;;;;;;25.61;20.19;101163.75;5034540;28;20020;-69
2022/06/06 07:38:49;;;;;;;;;;;;;;;25.73;19.57;101171.69;5034547;28;20003;-70
2022/06/06 07:41:21;;;;;;;;;;;;;;;25.70;20.16;101168.69;5033834;28;20312;-70
2022/06/06 07:44:02;;;;;;;;;;;;;;;25.65;20.12;101164.84;5034132;28;19940;-70
2022/06/06 07:46:27;;;;;;;;;;;;;;;25.71;19.90;101165.69;5033974;28;20367;-70
2022/06/06 07:48:58;;;;;;;;;;;;;;;25.72;19.56;101156.38;5035641;28;19917;-69
2022/06/06 07:51:30;;;;;;;;;;;;;;;25.72;19.96;101161.03;5096546;28;20346;-70
2022/06/06 07:53:58;;;;;;;;;;;;;;;25.64;19.64;101160.47;5078464;28;19927;-69
2022/06/06 07:56:42;;;;;;;;;;;;;;;25.52;19.94;101151.66;5095850;28;20390;-69
2022/06/06 07:59:13;;;;;;;;;;;;;;;25.62;20.05;101148.97;5096342;28;20019;-70
2022/06/06 08:01:58;;;;;;;;;;;;;;;25.53;20.11;101152.50;5078236;28;20418;-69
2022/06/06 08:04:24;;;;;;;;;;;;;;;25.53;19.93;101155.25;5097399;28;19916;-70
2022/06/06 08:07:08;;;;;;;;;;;;;;;25.53;19.93;101153.31;5097626;28;19920;-70
2022/06/06 08:09:43;;;;;;;;;;;;;;;25.53;19.72;101150.59;5096847;28;20007;-69
2022/06/06 08:12:30;;;;;;;;;;;;;;;25.48;19.72;101154.13;5096693;28;19959;-69
2022/06/06 08:15:08;;;;;;;;;;;;;;;25.52;19.60;101157.16;5080079;28;19916;-69
2022/06/06 08:17:33;;;;;;;;;;;;;;;25.48;19.79;101150.56;5096133;28;19964;-69
2022/06/06 08:20:27;;;;;;;;;;;;;;;25.44;19.90;101149.44;5098610;28;19920;-70
2022/06/06 08:22:52;;;;;;;;;;;;;;;25.41;19.95;101139.06;5034266;28;19917;-69
2022/06/06 08:25:19;;;;;;;;;;;;;;;25.57;19.90;101140.75;5032996;28;20376;-68
2022/06/06 08:27:50;;;;;;;;;;;;;;;25.37;19.97;101143.41;5041591;28;20086;-68
2022/06/06 08:30:15;;;;;;;;;;;;;;;25.38;19.99;101153.28;5054023;28;19924;-69
2022/06/06 08:32:42;;;;;;;;;;;;;;;25.43;19.88;101150.56;5052565;28;19917;-68
2022/06/06 08:35:07;;;;;;;;;;;;;;;25.46;19.60;101144.56;5052920;28;20279;-68
2022/06/06 08:37:55;;;;;;;;;;;;;;;25.47;19.64;101144.28;5053184;28;19916;-68
2022/06/06 08:40:39;;;;;;;;;;;;;;;25.53;19.52;101141.56;5035924;28;20481;-68
2022/06/06 08:43:07;;;;;;;;;;;;;;;25.70;19.43;101135.84;5035834;28;20324;-68
2022/06/06 08:45:46;;;;;;;;;;;;;;;25.55;19.61;101134.72;5052515;28;19932;-69
2022/06/06 08:48:17;;;;;;;;;;;;;;;25.42;19.87;101124.28;5036179;28;19932;-68
2022/06/06 08:51:01;;;;;;;;;;;;;;;25.61;19.56;101141.00;5052560;28;20387;-69
2022/06/06 08:53:38;;;;;;;;;;;;;;;26.00;18.69;101132.34;5052743;28;19932;-69
2022/06/06 08:56:15;;;;;;;;;;;;;;;26.15;18.60;101121.41;5052637;28;19944;-69
2022/06/06 08:58:44;;;;;;;;;;;;;;;26.00;18.45;101127.69;5056934;28;19979;-69
2022/06/06 09:01:21;;;;;;;;;;;;;;;26.07;18.35;101134.81;5094863;28;19916;-69
2022/06/06 09:03:49;;;;;;;;;;;;;;;25.98;18.66;101135.34;5094831;28;19923;-69
2022/06/06 09:06:14;;;;;;;;;;;;;;;26.13;18.24;101129.06;5094548;28;20367;-69
2022/06/06 09:08:58;;;;;;;;;;;;;;;26.18;18.17;101137.28;5094633;28;19962;-69
2022/06/06 09:11:42;;;;;;;;;;;;;;;26.27;18.31;101140.31;5095331;28;19939;-70
2022/06/06 09:14:14;;;;;;;;;;;;;;;26.09;18.26;101132.63;5094537;28;20357;-70
2022/06/06 09:16:39;;;;;;;;;;;;;;;26.14;18.55;101135.38;5094637;28;19927;-70
2022/06/06 09:19:15;;;;;;;;;;;;;;;26.13;18.34;101136.44;5094523;28;20274;-69
2022/06/06 09:21:52;;;;;;;;;;;;;;;26.17;18.16;101140.31;5094549;28;19924;-69
2022/06/06 09:24:26;;;;;;;;;;;;;;;26.03;18.44;101140.84;5094728;28;19916;-69
2022/06/06 09:27:11;;;;;;;;;;;;;;;26.24;18.53;101138.09;5076325;28;20316;-69
2022/06/06 09:29:54;;;;;;;;;;;;;;;26.35;18.07;101126.03;5074286;28;19939;-70
2022/06/06 09:32:25;;;;;;;;;;;;;;;26.38;18.04;101130.16;5074136;28;19927;-69
2022/06/06 09:35:09;;;;;;;;;;;;;;;26.28;18.29;101121.94;5074368;28;19935;-69
2022/06/06 09:37:37;;;;;;;;;;;;;;;26.23;18.57;101133.72;5074269;28;19977;-68
2022/06/06 09:40:11;;;;;;;;;;;;;;;26.12;18.45;101127.41;5073805;28;20263;-69
2022/06/06 09:42:38;;;;;;;;;;;;;;;26.39;18.35;101126.31;5074130;28;19923;-69
2022/06/06 09:45:17;;;;;;;;;;;;;;;26.14;18.53;101127.16;5088536;28;19916;-69
2022/06/06 09:47:57;;;;;;;;;;;;;;;26.24;18.64;101118.94;5074179;28;20019;-70
2022/06/06 09:50:34;;;;;;;;;;;;;;;26.28;18.52;101117.25;5073967;28;19917;-70
2022/06/06 09:53:18;;;;;;;;;;;;;;;26.16;18.79;101122.22;5074340;28;19921;-70
2022/06/06 09:59:12;;;;;;;;;;;;;;;26.29;18.60;101104.41;5071332;28;19917;-70
2022/06/06 10:01:49;;;;;;;;;;;;;;;26.42;18.63;101106.56;5071561;28;19970;-70
2022/06/06 10:04:35;;;;;;;;;;;;;;;26.49;18.56;101101.63;5072534;28;20317;-68
2022/06/06 10:07:12;;;;;;;;;;;;;;;26.45;18.51;101107.94;5031812;28;20022;-70
2022/06/06 10:09:50;;;;;;;;;;;;;;;26.49;18.48;101109.03;5031860;28;19921;-70
2022/06/06 10:12:33;;;;;;;;;;;;;;;26.34;18.74;101104.41;5031604;28;20007;-69
2022/06/06 10:14:58;;;;;;;;;;;;;;;26.52;18.35;101105.72;5031443;28;20004;-69
2022/06/06 10:17:29;;;;;;;;;;;;;;;26.41;18.83;101105.75;5031420;28;20007;-69
2022/06/06 10:19:57;;;;;;;;;;;;;;;26.19;18.80;101103.31;5031589;28;19917;-69
2022/06/06 10:22:35;;;;;;;;;;;;;;;26.39;18.55;101105.22;5031437;28;19917;-69
2022/06/06 10:25:01;;;;;;;;;;;;;;;26.47;18.44;101094.78;5014828;28;20012;-69
2022/06/06 10:27:44;;;;;;;;;;;;;;;26.51;18.61;101095.84;5031102;28;19944;-69
2022/06/06 10:30:30;;;;;;;;;;;;;;;26.23;19.05;101106.31;5031294;28;19975;-70
2022/06/06 10:33:05;;;;;;;;;;;;;;;26.49;18.84;101098.06;5031090;28;19967;-69
2022/06/06 10:35:48;;;;;;;;;;;;;;;26.65;18.70;101102.44;5031633;28;20387;-69
2022/06/06 10:38:32;;;;;;;;;;;;;;;26.45;18.83;101102.47;5031236;28;20052;-69
2022/06/06 10:41:15;;;;;;;;;;;;;;;26.55;18.39;101097.78;5030901;28;19917;-69
2022/06/06 10:43:43;;;;;;;;;;;;;;;26.52;18.65;101103.00;5051352;28;19916;-70
2022/06/06 10:46:10;;;;;;;;;;;;;;;26.36;18.82;101104.94;5093374;28;19920;-70
2022/06/06 10:48:44;;;;;;;;;;;;;;;26.48;18.43;101096.44;5093309;28;19924;-69
2022/06/06 10:54:14;;;;;;;;;;;;;;;26.51;18.40;101093.13;5093178;28;20440;-70
2022/06/06 10:56:46;;;;;;;;;;;;;;;26.43;18.66;101089.03;5094908;28;19924;-70
2022/06/06 10:59:16;;;;;;;;;;;;;;;26.70;18.13;101085.97;5097179;28;19931;-70
2022/06/06 11:01:50;;;;;;;;;;;;;;;26.84;17.87;101094.44;5079363;28;19999;-70
2022/06/06 11:04:27;;;;;;;;;;;;;;;26.72;17.93;101092.00;5097260;28;20002;-69
2022/06/06 11:06:55;;;;;;;;;;;;;;;26.83;18.03;101092.78;5097173;28;19916;-70
2022/06/06 11:09:30;;;;;;;;;;;;;;;26.88;17.85;101095.50;5097290;28;19916;-69
2022/06/06 11:12:13;;;;;;;;;;;;;;;26.92;17.59;101093.03;5096884;28;20323;-69
2022/06/06 11:14:45;;;;;;;;;;;;;;;26.86;17.58;101091.41;5096760;28;19923;-69
2022/06/06 11:17:13;;;;;;;;;;;;;;;26.86;17.55;101089.47;5079296;28;19916;-70
2022/06/06 11:19:56;;;;;;;;;;;;;;;26.87;17.54;101093.03;5097025;28;20290;-70
2022/06/06 11:22:23;;;;;;;;;;;;;;;26.90;17.51;101087.00;5097122;28;20030;-69
2022/06/06 11:24:58;;;;;;;;;;;;;;;26.95;17.42;101086.97;5097165;28;19924;-69
2022/06/06 11:27:26;;;;;;;;;;;;;;;26.94;17.49;101086.16;5097237;28;20355;-69
2022/06/06 11:30:09;;;;;;;;;;;;;;;26.92;17.52;101080.16;5076675;28;19974;-69
2022/06/06 11:32:52;;;;;;;;;;;;;;;26.93;17.55;101078.22;5077084;28;19916;-69
2022/06/06 11:35:25;;;;;;;;;;;;;;;26.90;17.49;101084.25;5076496;28;20011;-69
2022/06/06 11:37:50;;;;;;;;;;;;;;;26.81;17.51;101088.69;5076301;28;19916;-70
2022/06/06 11:40:35;;;;;;;;;;;;;;;26.89;17.64;101090.84;5076134;28;20274;-70
2022/06/06 11:43:12;;;;;;;;;;;;;;;26.86;17.56;101083.19;5092339;28;19924;-70
2022/06/06 11:45:44;;;;;;;;;;;;;;;26.78;17.63;101085.38;5092294;28;19974;-71
2022/06/06 11:48:42;;;;;;;;;;;;;;;26.74;17.85;101081.56;5091576;28;20003;-71
2022/06/06 11:51:13;;;;;;;;;;;;;;;26.82;17.76;101084.84;5033764;28;19917;-70
2022/06/06 11:53:57;;;;;;;;;;;;;;;26.82;17.59;101082.09;5033968;28;19921;-69
2022/06/06 11:56:41;;;;;;;;;;;;;;;26.78;17.87;101079.91;5033814;28;20012;-70
2022/06/06 11:59:22;;;;;;;;;;;;;;;26.67;18.06;101077.50;5034128;28;19917;-70
2022/06/06 12:02:05;;;;;;;;;;;;;;;26.77;17.70;101072.78;5034261;28;19960;-69
2022/06/06 12:04:37;;;;;;;;;;;;;;;26.69;17.98;101059.66;5033974;28;20346;-69
2022/06/06 12:07:07;;;;;;;;;;;;;;;26.53;18.27;101066.28;5033808;28;19924;-69
2022/06/06 12:09:36;;;;;;;;;;;;;;;26.49;18.62;101065.16;5032752;28;20380;-70
2022/06/06 12:12:01;;;;;;;;;;;;;;;26.39;18.80;101068.78;5033451;28;19979;-70
2022/06/06 12:14:41;;;;;;;;;;;;;;;26.37;18.58;101071.78;5033630;28;20359;-69
2022/06/06 12:17:18;;;;;;;;;;;;;;;26.41;18.48;101061.91;5033605;28;19917;-69
2022/06/06 12:19:44;;;;;;;;;;;;;;;26.40;18.76;101065.72;5033699;28;19956;-69
2022/06/06 12:22:16;;;;;;;;;;;;;;;26.41;18.60;101066.56;5034024;28;20371;-69
2022/06/06 12:24:53;;;;;;;;;;;;;;;26.31;18.63;101061.94;5033426;28;19960;-69
2022/06/06 12:27:21;;;;;;;;;;;;;;;26.32;18.66;101060.84;5064877;28;19917;-69
2022/06/06 12:30:05;;;;;;;;;;;;;;;26.44;18.33;101057.81;5094376;28;19916;-70
2022/06/06 12:32:39;;;;;;;;;;;;;;;26.64;17.99;101062.41;5095854;28;19981;-69
2022/06/06 12:35:10;;;;;;;;;;;;;;;26.69;17.84;101061.59;5095865;28;19947;-70
2022/06/06 12:37:39;;;;;;;;;;;;;;;26.71;17.80;101057.44;5096479;28;20266;-70
2022/06/06 12:40:05;;;;;;;;;;;;;;;26.72;17.91;101059.09;5095701;28;19916;-70
2022/06/06 12:42:48;;;;;;;;;;;;;;;26.61;18.04;101052.81;5095672;28;19962;-70
2022/06/06 12:45:34;;;;;;;;;;;;;;;26.60;17.91;101048.41;5095438;28;20250;-70
2022/06/06 12:47:59;;;;;;;;;;;;;;;26.56;17.80;101049.25;5033091;28;19925;-69
2022/06/06 12:50:36;;;;;;;;;;;;;;;26.69;17.78;101048.69;5033055;28;20276;-69
2022/06/06 12:53:12;;;;;;;;;;;;;;;26.51;17.97;101046.53;5032861;28;19948;-69
2022/06/06 12:58:40;;;;;;;;;;;;;;;26.61;17.85;101049.22;4993680;28;19918;-70
2022/06/06 13:04:21;;;;;;;;;;;;;;;26.52;18.07;101040.75;4993827;28;20004;-69
2022/06/06 13:06:52;;;;;;;;;;;;;;;26.61;17.99;101035.53;4990732;28;19917;-69
2022/06/06 13:09:20;;;;;;;;;;;;;;;26.52;17.95;101039.94;4993397;28;20031;-68
2022/06/06 13:12:03;;;;;;;;;;;;;;;26.51;18.04;101043.78;4993440;28;20396;-69
2022/06/06 13:14:58;;;;;;;;;;;;;;;26.54;18.03;101035.00;4994850;28;19946;-70
2022/06/06 13:17:35;;;;;;;;;;;;;;;26.50;18.09;101031.19;4935230;29;20013;-69
2022/06/06 13:20:06;;;;;;;;;;;;;;;26.48;18.01;101030.66;4935531;29;20083;-69
2022/06/06 13:22:47;;;;;;;;;;;;;;;26.45;18.01;101036.69;4935700;29;20310;-69
2022/06/06 13:25:31;;;;;;;;;;;;;;;26.46;17.73;101030.09;4940289;28;19938;-69
2022/06/06 13:27:58;;;;;;;;;;;;;;;26.42;17.89;101027.94;4973505;28;19973;-69